Time;durP1;ratioP1;P1;durP2;ratioP2;P2;SDS_P1;SDS_P2;PMS_P1;PMS_P2;Temp;Humidity;BMP_temperature;BMP_pressure;BME280_temperature;BME280_humidity;BME280_pressure;Samples;Min_cycle;Max_cycle;Signal;HPM_P1;HPM_P2
2023/01/01 00:00:37;;;;;;;7.03;2.67;;;;;;;16.17;64.31;100173.41;8362909;28;20036;-57
2023/01/01 00:04:37;;;;;;;5.47;2.70;;;;;;;16.18;64.26;100172.34;8357357;28;20044;-59
2023/01/01 00:08:39;;;;;;;14.73;2.45;;;;;;;16.03;64.74;100182.38;8368047;28;20091;-57
2023/01/01 00:12:39;;;;;;;3.40;1.85;;;;;;;16.00;64.59;100188.19;8353246;28;20525;-55
2023/01/01 00:16:40;;;;;;;5.80;2.55;;;;;;;15.77;65.44;100192.81;8357288;28;20454;-56
2023/01/01 00:20:40;;;;;;;10.63;2.40;;;;;;;15.68;65.38;100195.59;8354772;28;20452;-54
2023/01/01 00:24:41;;;;;;;6.43;1.95;;;;;;;15.62;65.40;100196.31;8354300;28;20079;-58
2023/01/01 00:28:42;;;;;;;5.43;2.35;;;;;;;15.81;63.75;100183.25;8359325;28;20139;-51
2023/01/01 00:32:43;;;;;;;3.60;1.55;;;;;;;15.77;64.13;100187.38;8343787;28;20080;-52
2023/01/01 00:36:43;;;;;;;4.55;1.58;;;;;;;15.93;63.05;100159.97;8341170;28;20041;-50
2023/01/01 00:40:44;;;;;;;7.88;1.80;;;;;;;16.15;61.69;100159.09;8343318;28;20441;-53
2023/01/01 00:44:45;;;;;;;7.13;2.20;;;;;;;15.88;62.65;100157.81;8344236;28;20552;-53
2023/01/01 00:48:45;;;;;;;5.32;1.90;;;;;;;15.75;63.11;100171.19;8349956;28;20119;-53
2023/01/01 00:52:47;;;;;;;6.15;2.63;;;;;;;15.54;64.01;100182.78;8369468;28;20036;-51
2023/01/01 00:56:48;;;;;;;14.20;2.25;;;;;;;15.45;64.24;100202.06;8372870;28;20044;-53
2023/01/01 01:00:49;;;;;;;8.05;2.47;;;;;;;15.35;64.51;100210.44;8376005;28;20079;-57
2023/01/01 01:04:50;;;;;;;6.25;1.85;;;;;;;15.37;64.24;100202.97;8373738;28;20401;-57
2023/01/01 01:08:50;;;;;;;5.03;1.63;;;;;;;15.57;63.24;100203.34;8379541;28;20044;-55
2023/01/01 01:12:52;;;;;;;6.63;1.40;;;;;;;15.43;63.70;100199.50;8373163;28;20107;-58
2023/01/01 01:16:52;;;;;;;4.68;1.48;;;;;;;15.53;63.21;100205.56;8375821;28;20098;-55
2023/01/01 01:20:53;;;;;;;5.18;1.30;;;;;;;15.55;63.00;100214.44;8373014;28;20064;-54
2023/01/01 01:24:54;;;;;;;4.95;1.40;;;;;;;15.66;62.03;100211.31;8372882;28;20457;-54
2023/01/01 01:28:56;;;;;;;3.60;1.33;;;;;;;15.66;62.55;100222.22;8373698;28;20060;-52
2023/01/01 01:32:56;;;;;;;3.85;1.42;;;;;;;15.61;62.45;100216.44;8370329;28;20037;-53
2023/01/01 01:36:57;;;;;;;3.47;1.17;;;;;;;15.53;62.70;100211.03;8373266;28;20037;-53
2023/01/01 01:40:57;;;;;;;6.60;1.35;;;;;;;15.52;63.02;100225.69;8371935;28;20124;-53
2023/01/01 01:45:00;;;;;;;5.93;1.40;;;;;;;15.43;63.55;100239.53;8370512;28;20041;-53
2023/01/01 01:49:05;;;;;;;3.15;0.93;;;;;;;15.38;63.77;100253.72;8373419;28;20036;-53
2023/01/01 01:53:14;;;;;;;6.75;1.27;;;;;;;15.42;63.14;100255.03;8374195;28;20490;-54
2023/01/01 01:57:15;;;;;;;2.58;0.85;;;;;;;15.46;63.22;100244.63;8375856;28;20037;-54
2023/01/01 02:01:16;;;;;;;5.25;1.85;;;;;;;15.56;62.44;100246.09;8378336;28;20044;-54
2023/01/01 02:05:19;;;;;;;5.32;1.20;;;;;;;15.51;62.98;100247.66;8389363;28;20615;-54
2023/01/01 02:09:20;;;;;;;4.20;1.02;;;;;;;15.46;63.17;100250.91;8392509;28;20040;-53
2023/01/01 02:13:21;;;;;;;4.38;1.33;;;;;;;15.53;62.69;100246.44;8391461;28;20040;-54
2023/01/01 02:17:31;;;;;;;2.72;1.10;;;;;;;15.48;63.03;100240.72;8391599;28;20508;-53
2023/01/01 02:21:49;;;;;;;5.80;1.10;;;;;;;15.47;63.03;100244.44;8384168;28;20421;-53
2023/01/01 02:26:19;;;;;;;5.57;1.20;;;;;;;15.54;62.66;100242.72;8391702;28;20047;-54
2023/01/01 02:30:19;;;;;;;4.45;1.15;;;;;;;15.48;63.12;100237.97;8391163;28;20056;-51
2023/01/01 02:34:25;;;;;;;7.63;1.40;;;;;;;15.43;63.31;100237.66;8391351;28;20055;-53
2023/01/01 02:38:32;;;;;;;3.45;1.23;;;;;;;15.55;62.93;100249.84;8391335;28;20497;-53
2023/01/01 02:42:32;;;;;;;7.32;1.42;;;;;;;15.58;62.82;100249.50;8389887;28;20106;-52
2023/01/01 02:46:34;;;;;;;3.67;0.90;;;;;;;15.55;63.16;100249.00;8388924;28;20048;-53
2023/01/01 02:50:35;;;;;;;6.55;1.25;;;;;;;15.47;63.55;100246.34;8390668;28;20170;-57
2023/01/01 02:55:02;;;;;;;6.78;1.23;;;;;;;15.37;64.16;100252.00;8370085;28;20041;-58
2023/01/01 03:00:32;;;;;;;6.93;1.50;;;;;;;15.45;63.81;100238.34;8355087;28;20417;-59
2023/01/01 03:04:02;;;;;;;5.68;1.35;;;;;;;15.44;64.22;100247.50;8356037;28;20966;-56
2023/01/01 03:08:24;;;;;;;5.07;1.23;;;;;;;15.40;64.52;100240.75;8363904;28;20045;-58
2023/01/01 03:12:42;;;;;;;3.25;1.10;;;;;;;15.59;63.75;100234.84;8357122;28;20106;-59
2023/01/01 03:16:56;;;;;;;6.47;1.42;;;;;;;15.52;64.44;100244.75;8356213;28;20383;-58
2023/01/01 03:21:00;;;;;;;5.88;1.63;;;;;;;15.47;64.97;100252.63;8357250;28;20044;-57
2023/01/01 03:25:13;;;;;;;5.57;1.30;;;;;;;15.49;64.90;100266.06;8355525;28;20052;-56
2023/01/01 03:29:13;;;;;;;5.55;1.48;;;;;;;15.46;65.00;100267.28;8356314;28;20067;-55
2023/01/01 03:33:22;;;;;;;3.83;1.10;;;;;;;15.54;65.29;100269.97;8356590;28;20043;-54
2023/01/01 03:37:27;;;;;;;5.25;1.75;;;;;;;15.65;65.07;100255.91;8358406;28;20528;-56
2023/01/01 03:41:36;;;;;;;5.18;1.25;;;;;;;15.73;64.91;100251.47;8355849;28;20049;-55
2023/01/01 03:45:42;;;;;;;7.63;1.38;;;;;;;15.73;65.03;100262.38;8345371;28;20044;-56
2023/01/01 03:49:43;;;;;;;7.63;1.33;;;;;;;15.77;65.46;100265.38;8324140;28;20049;-56
2023/01/01 03:53:43;;;;;;;3.75;1.35;;;;;;;15.85;65.18;100255.47;8338158;28;20421;-56
2023/01/01 03:58:09;;;;;;;6.63;1.10;;;;;;;15.81;65.46;100259.56;8357077;28;20041;-55
2023/01/01 04:02:12;;;;;;;5.15;1.00;;;;;;;15.82;65.65;100261.28;8355687;28;20413;-56
2023/01/01 04:06:14;;;;;;;2.75;1.00;;;;;;;15.80;65.89;100263.34;8370491;28;20040;-57
2023/01/01 04:10:16;;;;;;;5.15;1.70;;;;;;;15.77;66.19;100263.69;8391300;28;20036;-54
2023/01/01 04:14:39;;;;;;;5.40;1.50;;;;;;;15.68;66.49;100277.38;8390491;28;20379;-55
2023/01/01 04:18:39;;;;;;;4.13;1.30;;;;;;;15.61;67.05;100292.75;8359612;28;20037;-56
2023/01/01 04:22:40;;;;;;;4.63;1.67;;;;;;;15.58;67.27;100293.09;8357007;28;20064;-55
2023/01/01 04:26:40;;;;;;;2.83;1.42;;;;;;;15.63;67.25;100289.84;8357184;28;20477;-57
2023/01/01 04:30:41;;;;;;;4.97;1.65;;;;;;;15.54;67.56;100286.31;8357392;28;20514;-56
2023/01/01 04:34:41;;;;;;;6.40;1.30;;;;;;;15.47;67.65;100290.75;8362699;28;20036;-55
2023/01/01 04:38:41;;;;;;;8.52;1.60;;;;;;;15.46;68.35;100302.69;8390087;28;20064;-59
2023/01/01 04:42:42;;;;;;;4.32;1.85;;;;;;;15.41;68.64;100286.00;8379296;28;20175;-59
2023/01/01 04:46:43;;;;;;;7.68;1.50;;;;;;;15.47;68.54;100292.66;8356359;28;20094;-58
2023/01/01 04:50:43;;;;;;;4.53;1.42;;;;;;;15.53;68.18;100290.03;8357516;28;20041;-56
2023/01/01 04:54:43;;;;;;;6.03;1.63;;;;;;;15.52;68.70;100304.72;8356541;28;20033;-56
2023/01/01 04:58:45;;;;;;;5.03;1.55;;;;;;;15.39;69.74;100309.88;8356969;28;20112;-56
2023/01/01 05:02:46;;;;;;;4.78;1.80;;;;;;;15.44;69.18;100312.91;8356527;28;20163;-59
2023/01/01 05:06:46;;;;;;;5.78;1.77;;;;;;;15.57;68.97;100291.41;8364482;28;20037;-58
2023/01/01 05:10:46;;;;;;;5.65;1.75;;;;;;;15.50;69.24;100301.31;8357451;28;20037;-59
2023/01/01 05:14:47;;;;;;;6.75;2.58;;;;;;;15.51;69.13;100305.75;8357000;28;20068;-59
2023/01/01 05:18:48;;;;;;;7.35;1.70;;;;;;;15.37;70.01;100311.91;8356218;28;20041;-59
2023/01/01 05:22:48;;;;;;;3.30;1.67;;;;;;;15.34;69.71;100325.84;8356367;28;20528;-58
2023/01/01 05:26:49;;;;;;;4.47;1.60;;;;;;;15.46;69.41;100327.22;8356109;28;20386;-58
2023/01/01 05:30:51;;;;;;;4.93;1.67;;;;;;;15.34;70.33;100334.03;8356287;28;21006;-60
2023/01/01 05:34:52;;;;;;;6.03;1.63;;;;;;;15.29;70.43;100325.56;8350653;28;20480;-57
2023/01/01 05:38:53;;;;;;;5.07;1.65;;;;;;;15.27;70.90;100335.78;8353562;28;20087;-58
2023/01/01 05:42:53;;;;;;;6.55;1.60;;;;;;;15.37;70.71;100354.69;8354220;28;20165;-57
2023/01/01 05:46:54;;;;;;;7.50;1.27;;;;;;;15.33;71.49;100351.41;8355053;28;20067;-59
2023/01/01 05:51:05;;;;;;;7.88;1.95;;;;;;;15.22;72.47;100376.28;8360719;28;20040;-58
2023/01/01 05:55:06;;;;;;;7.82;2.00;;;;;;;15.32;71.53;100376.97;8361757;28;20078;-58
2023/01/01 05:59:06;;;;;;;7.10;1.42;;;;;;;15.31;72.41;100402.47;8368945;28;20502;-59
2023/01/01 06:03:07;;;;;;;5.68;1.30;;;;;;;15.28;73.53;100404.72;8361247;28;20044;-58
2023/01/01 06:07:07;;;;;;;4.80;1.55;;;;;;;15.14;74.32;100414.44;8369391;28;20039;-59
2023/01/01 06:11:10;;;;;;;5.00;1.33;;;;;;;15.35;72.59;100392.09;8360587;28;20037;-52
2023/01/01 06:15:11;;;;;;;6.03;1.70;;;;;;;15.43;72.25;100387.50;8361151;28;20119;-53
2023/01/01 06:19:11;;;;;;;7.22;1.85;;;;;;;15.41;72.47;100396.88;8361221;28;20063;-53
2023/01/01 06:23:11;;;;;;;7.13;2.15;;;;;;;15.39;72.52;100402.50;8360300;28;20051;-53
2023/01/01 06:27:12;;;;;;;5.55;1.63;;;;;;;15.33;72.98;100403.16;8361212;28;20039;-53
2023/01/01 06:31:15;;;;;;;5.60;2.03;;;;;;;15.34;73.24;100399.41;8360771;28;20388;-54
2023/01/01 06:35:15;;;;;;;7.72;1.73;;;;;;;15.29;73.36;100393.66;8371516;28;20481;-53
2023/01/01 06:39:16;;;;;;;7.57;1.73;;;;;;;15.32;73.32;100411.50;8393994;28;20455;-54
2023/01/01 06:43:16;;;;;;;6.20;2.00;;;;;;;15.31;73.46;100394.31;8379078;28;20045;-52
2023/01/01 06:47:17;;;;;;;8.15;1.80;;;;;;;15.34;73.54;100398.59;8360236;28;20044;-54
2023/01/01 06:51:21;;;;;;;5.00;1.60;;;;;;;15.30;74.00;100402.66;8360831;28;20033;-54
2023/01/01 06:55:21;;;;;;;7.30;1.48;;;;;;;15.37;73.80;100406.44;8357423;28;20044;-53
2023/01/01 06:59:22;;;;;;;7.38;1.58;;;;;;;15.42;73.93;100439.44;8342099;28;20119;-53
2023/01/01 07:03:22;;;;;;;5.60;1.60;;;;;;;15.41;73.95;100459.53;8360383;28;20045;-52
2023/01/01 07:07:23;;;;;;;2.88;1.45;;;;;;;15.37;74.16;100448.13;8367979;28;20040;-54
2023/01/01 07:11:24;;;;;;;3.17;1.52;;;;;;;15.37;74.56;100456.31;8359677;28;20041;-54
2023/01/01 07:15:25;;;;;;;4.95;2.00;;;;;;;15.40;74.31;100463.31;8326366;28;20580;-54
2023/01/01 07:19:26;;;;;;;3.13;1.48;;;;;;;15.42;74.19;100464.81;8346240;28;20545;-53
2023/01/01 07:23:29;;;;;;;4.72;1.63;;;;;;;15.40;74.46;100482.38;8392446;28;20064;-54
2023/01/01 07:27:30;;;;;;;5.90;1.90;;;;;;;15.40;74.64;100496.81;8360125;28;20355;-53
2023/01/01 07:31:30;;;;;;;7.35;2.05;;;;;;;15.36;74.81;100500.91;8358495;28;20068;-51
2023/01/01 07:35:30;;;;;;;5.72;1.92;;;;;;;15.30;75.33;100509.75;8358401;28;20063;-53
2023/01/01 07:39:31;;;;;;;5.53;1.50;;;;;;;15.33;74.84;100506.69;8358178;28;20186;-53
2023/01/01 07:43:31;;;;;;;5.95;1.83;;;;;;;15.39;75.23;100516.06;8391222;28;20040;-53
2023/01/01 07:47:32;;;;;;;6.93;1.40;;;;;;;15.40;74.72;100525.97;8391710;28;20120;-53
2023/01/01 07:51:32;;;;;;;5.18;2.10;;;;;;;15.42;74.87;100541.13;8415905;28;20036;-54
2023/01/01 07:55:33;;;;;;;4.25;1.85;;;;;;;15.45;74.85;100543.50;8410885;28;20492;-53
2023/01/01 07:59:34;;;;;;;5.30;1.90;;;;;;;15.41;75.21;100535.84;8405842;28;20052;-52
2023/01/01 08:03:34;;;;;;;9.27;1.52;;;;;;;15.44;74.92;100544.50;8414964;28;20097;-53
2023/01/01 08:07:34;;;;;;;7.88;2.13;;;;;;;15.47;75.63;100548.78;8370122;28;20055;-54
2023/01/01 08:11:35;;;;;;;5.50;1.80;;;;;;;15.44;76.17;100546.38;8357721;28;20041;-55
2023/01/01 08:15:35;;;;;;;8.55;1.77;;;;;;;15.43;76.13;100541.94;8356258;28;20045;-54
2023/01/01 08:19:36;;;;;;;5.65;1.70;;;;;;;15.38;76.92;100557.97;8356536;28;20049;-54
2023/01/01 08:23:36;;;;;;;7.15;1.95;;;;;;;15.26;77.88;100543.81;8350603;28;20049;-52
2023/01/01 08:27:37;;;;;;;9.32;1.65;;;;;;;15.20;78.60;100562.69;8346971;28;20034;-54
2023/01/01 08:31:37;;;;;;;5.50;1.67;;;;;;;15.19;79.16;100564.56;8338411;28;20060;-54
2023/01/01 08:35:40;;;;;;;5.35;2.03;;;;;;;15.17;79.28;100555.72;8337624;28;20033;-53
2023/01/01 08:39:41;;;;;;;7.28;1.65;;;;;;;15.24;79.31;100559.47;8343548;28;20041;-53
2023/01/01 08:43:41;;;;;;;9.43;1.70;;;;;;;15.11;80.20;100550.94;8342595;28;20052;-52
2023/01/01 08:47:42;;;;;;;6.82;1.40;;;;;;;15.17;80.28;100554.84;8370396;28;20040;-54
2023/01/01 08:51:42;;;;;;;5.65;1.70;;;;;;;15.16;80.83;100575.78;8338580;28;20123;-54
2023/01/01 08:55:43;;;;;;;5.47;1.80;;;;;;;15.08;80.97;100578.53;8343355;28;20041;-54
2023/01/01 08:59:43;;;;;;;9.25;1.85;;;;;;;15.18;80.36;100592.81;8352532;28;20044;-54
2023/01/01 09:03:44;;;;;;;5.03;1.55;;;;;;;15.19;80.69;100591.78;8363268;28;20498;-54
2023/01/01 09:07:44;;;;;;;5.22;1.70;;;;;;;15.16;80.84;100589.41;8364602;28;20037;-53
2023/01/01 09:11:54;;;;;;;9.70;1.63;;;;;;;15.17;80.82;100593.84;8373133;28;20479;-52
2023/01/01 09:15:55;;;;;;;7.80;1.65;;;;;;;15.22;80.60;100607.78;8378748;28;20051;-53
2023/01/01 09:19:56;;;;;;;8.43;1.50;;;;;;;15.26;80.49;100617.34;8366095;28;20045;-53
2023/01/01 09:23:56;;;;;;;6.63;2.10;;;;;;;15.20;81.15;100615.31;8374776;28;20090;-52
2023/01/01 09:27:58;;;;;;;11.07;1.40;;;;;;;15.21;81.12;100629.75;8385992;28;20086;-51
2023/01/01 09:31:58;;;;;;;4.97;1.55;;;;;;;15.28;80.49;100639.81;8365130;28;20036;-51
2023/01/01 09:40:58;;;;;;;5.93;1.45;;;;;;;15.33;80.37;100648.34;8321131;28;20485;-49
2023/01/01 09:49:37;;;;;;;11.23;1.55;;;;;;;15.36;80.59;100650.75;8400809;27;20528;-53
2023/01/01 09:54:18;;;;;;;6.10;1.38;;;;;;;15.52;79.91;100658.09;8389549;27;20264;-50
2023/01/01 09:58:24;;;;;;;5.20;1.50;;;;;;;15.61;79.07;100666.13;8394628;27;20488;-49
2023/01/01 10:02:36;;;;;;;5.22;1.30;;;;;;;15.64;78.91;100671.25;8365554;28;20392;-50
2023/01/01 10:06:46;;;;;;;6.35;1.65;;;;;;;15.67;78.64;100679.06;8400669;28;20085;-53
2023/01/01 10:10:59;;;;;;;6.80;1.50;;;;;;;15.64;79.15;100668.50;8414731;28;20081;-52
2023/01/01 10:15:13;;;;;;;6.10;1.65;;;;;;;15.63;79.19;100665.94;8393276;28;20386;-50
2023/01/01 10:19:50;;;;;;;6.80;1.55;;;;;;;15.61;79.95;100657.94;8407127;28;20036;-52
2023/01/01 10:24:02;;;;;;;6.10;1.83;;;;;;;15.61;80.39;100660.66;8395650;28;20041;-51
2023/01/01 10:28:12;;;;;;;9.43;2.20;;;;;;;15.71;79.39;100657.78;8404056;28;20453;-51
2023/01/01 10:32:19;;;;;;;10.25;1.80;;;;;;;15.70;79.56;100646.03;8402095;28;20603;-53
2023/01/01 10:36:19;;;;;;;6.55;2.13;;;;;;;15.73;79.05;100633.91;8413980;28;20039;-50
2023/01/01 10:40:22;;;;;;;5.78;1.45;;;;;;;15.76;79.33;100630.03;8414422;28;20396;-51
2023/01/01 10:44:29;;;;;;;7.93;1.30;;;;;;;15.76;79.41;100641.75;8413033;28;20036;-49
2023/01/01 10:48:31;;;;;;;8.75;2.00;;;;;;;15.77;79.44;100638.03;8405437;28;20413;-51
2023/01/01 10:52:37;;;;;;;13.55;2.47;;;;;;;15.77;79.12;100625.22;8413352;28;20409;-51
2023/01/01 10:56:40;;;;;;;8.13;2.13;;;;;;;15.80;79.39;100612.28;8414341;28;20024;-50
2023/01/01 11:00:40;;;;;;;3.75;1.48;;;;;;;15.80;79.71;100613.16;8385344;28;20041;-51
2023/01/01 11:04:41;;;;;;;7.00;1.70;;;;;;;15.85;79.24;100604.47;8383667;28;20044;-53
2023/01/01 11:08:48;;;;;;;7.43;1.83;;;;;;;15.80;79.18;100606.84;8389108;28;20464;-52
2023/01/01 11:12:52;;;;;;;7.85;1.30;;;;;;;15.77;79.22;100625.22;8389016;28;20047;-48
2023/01/01 11:16:54;;;;;;;5.60;1.33;;;;;;;15.79;78.62;100640.59;8386806;28;20377;-51
2023/01/01 11:20:57;;;;;;;6.25;1.67;;;;;;;15.74;78.78;100641.94;8388116;28;20043;-52
2023/01/01 11:25:02;;;;;;;10.02;1.95;;;;;;;15.74;78.19;100658.28;8387006;28;20029;-51
2023/01/01 11:29:24;;;;;;;6.70;1.60;;;;;;;15.77;78.24;100654.38;8388661;28;20040;-52
2023/01/01 11:33:26;;;;;;;5.10;1.70;;;;;;;15.80;77.70;100662.22;8388506;28;20028;-53
2023/01/01 11:37:32;;;;;;;4.07;1.13;;;;;;;15.82;78.10;100659.31;8384469;28;20040;-51
2023/01/01 11:41:43;;;;;;;12.55;2.20;;;;;;;15.82;78.61;100667.50;8364213;28;20029;-50
2023/01/01 11:45:44;;;;;;;6.35;1.52;;;;;;;15.80;78.64;100670.41;8378483;28;20055;-53
2023/01/01 11:49:51;;;;;;;9.80;1.95;;;;;;;15.81;78.40;100666.66;8367257;28;20068;-54
2023/01/01 11:54:08;;;;;;;3.58;1.13;;;;;;;15.83;77.47;100653.69;8367302;28;20486;-52
2023/01/01 11:58:38;;;;;;;8.18;1.15;;;;;;;15.90;76.97;100648.41;8370958;28;20039;-51
2023/01/01 12:02:49;;;;;;;4.80;1.50;;;;;;;15.87;77.50;100651.47;8378377;28;20483;-50
2023/01/01 12:06:56;;;;;;;8.68;2.00;;;;;;;15.79;78.05;100649.59;8374038;28;20507;-52
2023/01/01 12:11:05;;;;;;;5.03;1.20;;;;;;;15.85;78.10;100648.91;8368177;28;20042;-53
2023/01/01 12:15:16;;;;;;;9.07;1.58;;;;;;;15.91;77.51;100636.47;8370466;28;20036;-53
2023/01/01 12:19:27;;;;;;;9.52;1.83;;;;;;;16.01;75.66;100620.78;8388685;28;20056;-50
2023/01/01 12:23:28;;;;;;;8.30;1.80;;;;;;;16.06;75.01;100613.78;8384819;28;20115;-53
2023/01/01 12:27:58;;;;;;;7.90;1.40;;;;;;;16.05;75.45;100620.28;8381238;28;20041;-53
2023/01/01 12:32:24;;;;;;;7.50;1.70;;;;;;;16.04;75.17;100625.91;8379398;28;20124;-51
2023/01/01 12:41:22;;;;;;;6.25;1.20;;;;;;;15.90;75.42;100616.53;8357556;27;20380;-51
2023/01/01 12:46:03;;;;;;;3.25;0.90;;;;;;;15.84;76.04;100627.28;8341049;28;20037;-50
2023/01/01 12:55:17;;;;;;;7.05;1.40;;;;;;;15.89;74.74;100617.53;8357771;27;20366;-54
2023/01/01 12:59:24;;;;;;;4.47;1.33;;;;;;;15.85;74.98;100607.19;8344878;28;20102;-54
2023/01/01 13:03:33;;;;;;;8.65;1.85;;;;;;;15.90;74.22;100602.03;8347094;28;20091;-53
2023/01/01 13:07:39;;;;;;;8.55;1.35;;;;;;;15.88;73.96;100623.16;8332644;28;20106;-53
2023/01/01 13:11:42;;;;;;;5.57;1.33;;;;;;;15.88;73.72;100625.91;8342736;28;20492;-55
2023/01/01 13:15:47;;;;;;;7.13;1.30;;;;;;;15.85;74.20;100629.00;8345793;28;20530;-54
2023/01/01 13:19:51;;;;;;;6.10;1.25;;;;;;;15.81;74.63;100620.28;8339160;28;20041;-53
2023/01/01 13:23:52;;;;;;;6.50;4.60;;;;;;;15.81;74.56;100619.44;8341731;28;20054;-55
2023/01/01 13:32:08;;;;;;;6.55;1.65;;;;;;;15.73;75.54;100618.44;8307324;28;20405;-57
2023/01/01 13:40:32;;;;;;;10.70;1.40;;;;;;;15.62;76.08;100610.56;8304804;28;20347;-56
2023/01/01 13:44:33;;;;;;;5.85;2.55;;;;;;;15.64;75.80;100611.28;8309481;28;20033;-54
2023/01/01 13:53:25;;;;;;;4.75;1.77;;;;;;;15.57;76.46;100618.44;8407014;27;20422;-57
2023/01/01 13:58:05;;;;;;;9.70;2.20;;;;;;;15.53;76.31;100606.16;8389849;28;20036;-56
2023/01/01 14:02:28;;;;;;;7.55;2.00;;;;;;;15.57;75.87;100607.53;8377208;28;20060;-55
2023/01/01 14:06:35;;;;;;;7.23;2.50;;;;;;;15.45;76.40;100597.13;8386782;28;20064;-57
2023/01/01 14:10:36;;;;;;;6.80;2.38;;;;;;;15.52;76.10;100615.34;8377847;28;20044;-57
2023/01/01 14:14:37;;;;;;;6.50;1.63;;;;;;;15.53;75.91;100611.59;8378565;28;20082;-56
2023/01/01 14:18:44;;;;;;;2.65;1.40;;;;;;;15.51;75.53;100616.38;8379109;28;20558;-56
2023/01/01 14:22:45;;;;;;;3.90;1.15;;;;;;;15.53;75.65;100617.03;8377828;28;20140;-52
2023/01/01 14:26:46;;;;;;;4.68;1.10;;;;;;;15.49;75.63;100615.69;8385070;28;20082;-56
2023/01/01 14:30:47;;;;;;;2.30;0.77;;;;;;;15.48;75.47;100613.13;8373471;28;20040;-51
2023/01/01 14:34:58;;;;;;;6.32;0.95;;;;;;;15.55;75.19;100615.00;8370137;28;20041;-56
2023/01/01 14:39:00;;;;;;;3.40;1.02;;;;;;;15.46;75.87;100616.03;8371229;28;20044;-56
2023/01/01 14:43:04;;;;;;;7.20;1.08;;;;;;;15.34;76.96;100620.06;8388893;28;20129;-49
2023/01/01 14:47:17;;;;;;;;;;;;;;;15.24;78.59;100629.41;8410976;28;20036;-54
2023/01/01 14:51:22;;;;;;;3.03;0.98;;;;;;;15.10;79.24;100625.47;8407027;28;19965;-57
2023/01/01 14:55:25;;;;;;;;;;;;;;;15.03;79.46;100635.34;8412141;28;20039;-56
2023/01/01 14:59:29;;;;;;;5.38;0.98;;;;;;;15.01;79.69;100626.47;8410686;28;19923;-55
2023/01/01 15:03:30;;;;;;;6.00;1.10;;;;;;;14.85;82.00;100637.31;8393459;28;20090;-57
2023/01/01 15:07:31;;;;;;;4.43;1.40;;;;;;;14.67;84.47;100647.44;8371473;28;20217;-53
2023/01/01 15:11:31;;;;;;;1.58;0.70;;;;;;;14.43;87.15;100651.94;8388665;28;20111;-55
2023/01/01 15:15:38;;;;;;;3.95;1.27;;;;;;;14.23;89.13;100650.41;8386378;28;20045;-55
2023/01/01 15:19:42;;;;;;;4.90;1.55;;;;;;;14.09;91.09;100649.13;8380986;28;20547;-56
2023/01/01 15:23:52;;;;;;;2.58;0.88;;;;;;;14.00;91.50;100644.66;8375110;28;20557;-57
2023/01/01 15:27:54;;;;;;;4.72;1.52;;;;;;;13.88;94.31;100640.50;8381423;28;20413;-57
2023/01/01 15:31:59;;;;;;;5.88;1.27;;;;;;;13.77;98.36;100635.31;8378219;28;20043;-57
2023/01/01 15:36:02;;;;;;;4.22;1.33;;;;;;;13.69;98.33;100624.38;8381607;28;20362;-57
2023/01/01 15:40:25;;;;;;;8.45;2.60;;;;;;;13.62;98.78;100626.91;8386676;28;20064;-55
2023/01/01 15:44:30;;;;;;;5.00;2.50;;;;;;;13.61;99.64;100633.31;8387227;28;20043;-57
2023/01/01 15:48:33;;;;;;;5.15;2.00;;;;;;;13.50;100.00;100630.00;8379011;28;20123;-56
2023/01/01 15:52:34;;;;;;;4.43;1.80;;;;;;;13.47;100.00;100625.75;8353967;28;20491;-55
2023/01/01 15:56:39;;;;;;;6.40;1.58;;;;;;;13.52;100.00;100631.56;8366028;28;20371;-54
2023/01/01 16:00:40;;;;;;;5.18;1.30;;;;;;;13.52;100.00;100622.56;8355373;28;20037;-55
2023/01/01 16:04:45;;;;;;;4.68;1.33;;;;;;;13.53;100.00;100629.69;8344483;28;20152;-56
2023/01/01 16:08:46;;;;;;;2.63;1.17;;;;;;;13.53;100.00;100632.41;8351891;28;20115;-56
2023/01/01 16:12:46;;;;;;;6.47;1.55;;;;;;;13.56;100.00;100619.38;8345425;28;20126;-56
2023/01/01 16:16:52;;;;;;;5.97;2.55;;;;;;;13.53;100.00;100635.13;8343360;28;20115;-57
2023/01/01 16:20:54;;;;;;;13.43;2.40;;;;;;;13.54;100.00;100625.94;8332456;28;20025;-56
2023/01/01 16:24:54;;;;;;;3.83;1.67;;;;;;;13.51;100.00;100620.88;8358510;28;20041;-57
2023/01/01 16:28:54;;;;;;;6.63;1.30;;;;;;;13.45;100.00;100616.06;8347932;28;20095;-57
2023/01/01 16:32:55;;;;;;;6.88;1.42;;;;;;;13.39;100.00;100616.69;8398937;28;20405;-58
2023/01/01 16:36:56;;;;;;;3.50;1.10;;;;;;;13.41;100.00;100603.78;8372689;28;20489;-57
2023/01/01 16:40:57;;;;;;;5.03;1.40;;;;;;;13.43;100.00;100601.75;8363517;28;20120;-56
2023/01/01 16:44:57;;;;;;;1.80;0.93;;;;;;;13.45;100.00;100600.59;8356704;28;20063;-58
2023/01/01 16:48:58;;;;;;;2.58;1.10;;;;;;;13.46;100.00;100607.75;8342395;28;20574;-57
2023/01/01 16:52:58;;;;;;;3.17;1.20;;;;;;;13.46;100.00;100598.75;8381055;28;20049;-53
2023/01/01 16:56:59;;;;;;;5.80;1.17;;;;;;;13.44;100.00;100592.59;8373395;28;20090;-55
2023/01/01 17:01:00;;;;;;;4.07;1.40;;;;;;;13.43;100.00;100590.91;8371180;28;20120;-54
2023/01/01 17:05:01;;;;;;;5.15;1.40;;;;;;;13.38;100.00;100577.78;8349227;28;20044;-54
2023/01/01 17:09:01;;;;;;;6.63;1.55;;;;;;;13.29;100.00;100572.44;8352870;28;20265;-56
2023/01/01 17:13:02;;;;;;;5.32;1.30;;;;;;;13.25;100.00;100560.19;8352514;28;20136;-57
2023/01/01 17:17:04;;;;;;;4.22;1.27;;;;;;;13.18;100.00;100548.25;8353214;28;20063;-57
2023/01/01 17:21:09;;;;;;;4.03;1.48;;;;;;;13.16;100.00;100542.13;8353481;28;20502;-56
2023/01/01 17:25:09;;;;;;;;;;;;;;;13.15;100.00;100560.25;8401391;28;20365;-58
2023/01/01 17:29:10;;;;;;;12.00;2.17;;;;;;;13.07;100.00;100554.78;8385824;28;20206;-57
2023/01/01 17:33:11;;;;;;;6.50;2.22;;;;;;;13.02;100.00;100554.38;8354886;28;20290;-57
2023/01/01 17:37:11;;;;;;;9.85;2.67;;;;;;;12.97;100.00;100547.69;8351560;28;20546;-57
2023/01/01 17:41:14;;;;;;;8.43;3.25;;;;;;;13.01;100.00;100540.97;8354012;28;20036;-57
2023/01/01 17:45:15;;;;;;;8.38;3.10;;;;;;;13.08;100.00;100531.19;8349898;28;20045;-56
2023/01/01 17:49:15;;;;;;;9.40;3.17;;;;;;;13.07;100.00;100534.91;8350620;28;20029;-57
2023/01/01 17:53:16;;;;;;;7.50;2.83;;;;;;;13.04;100.00;100535.22;8351146;28;20044;-58
2023/01/01 17:57:17;;;;;;;12.10;2.53;;;;;;;12.91;100.00;100534.75;8354816;28;20044;-57
2023/01/01 18:01:23;;;;;;;7.38;2.53;;;;;;;12.82;100.00;100541.09;8343335;28;20132;-56
2023/01/01 18:05:25;;;;;;;7.35;3.20;;;;;;;12.77;100.00;100537.97;8340311;28;20048;-57
2023/01/01 18:09:26;;;;;;;7.97;3.08;;;;;;;12.84;100.00;100533.66;8348533;28;20033;-56
2023/01/01 18:13:26;;;;;;;7.63;3.60;;;;;;;12.86;100.00;100537.91;8350620;28;20269;-56
2023/01/01 18:17:27;;;;;;;10.65;3.78;;;;;;;12.81;100.00;100529.38;8359924;28;20517;-56
2023/01/01 18:21:27;;;;;;;17.13;4.40;;;;;;;12.84;100.00;100529.06;8349465;28;20037;-55
2023/01/01 18:25:28;;;;;;;7.95;4.03;;;;;;;12.86;100.00;100528.91;8348042;28;20090;-54
2023/01/01 18:29:28;;;;;;;9.18;4.00;;;;;;;12.82;100.00;100533.81;8354101;28;20037;-56
2023/01/01 18:33:29;;;;;;;10.90;5.03;;;;;;;12.73;100.00;100531.16;8367929;28;20036;-55
2023/01/01 18:37:29;;;;;;;15.77;5.38;;;;;;;12.74;100.00;100508.44;8377392;28;20673;-55
2023/01/01 18:41:59;;;;;;;14.90;4.68;;;;;;;12.75;100.00;100494.72;8364314;28;20067;-53
2023/01/01 18:46:00;;;;;;;13.30;5.35;;;;;;;12.77;100.00;100489.16;8337264;28;20498;-57
2023/01/01 18:50:13;;;;;;;13.77;5.32;;;;;;;12.80;100.00;100499.69;8342479;28;20112;-54
2023/01/01 18:54:14;;;;;;;14.50;4.90;;;;;;;12.83;100.00;100477.69;8368056;28;20040;-51
2023/01/01 18:58:21;;;;;;;14.10;5.75;;;;;;;12.86;100.00;100469.22;8388441;28;20525;-53
2023/01/01 19:02:42;;;;;;;12.68;5.72;;;;;;;12.92;100.00;100472.19;8377220;28;20485;-50
2023/01/01 19:06:42;;;;;;;10.60;5.68;;;;;;;12.85;100.00;100464.81;8412971;28;20036;-53
2023/01/01 19:14:57;;;;;;;15.05;5.57;;;;;;;12.72;100.00;100459.78;8342107;27;20789;-54
2023/01/01 19:19:10;;;;;;;12.02;4.93;;;;;;;12.73;100.00;100449.78;8315620;28;20041;-53
2023/01/01 19:23:20;;;;;;;9.63;5.80;;;;;;;12.74;100.00;100435.19;8314737;28;20112;-52
2023/01/01 19:27:23;;;;;;;14.23;5.25;;;;;;;12.85;100.00;100434.97;8314143;28;20045;-51
2023/01/01 19:31:23;;;;;;;15.80;5.82;;;;;;;12.95;100.00;100427.59;8309242;28;20481;-53